Time;durP1;ratioP1;P1;durP2;ratioP2;P2;SDS_P1;SDS_P2;PMS_P1;PMS_P2;Temp;Humidity;BMP_temperature;BMP_pressure;BME280_temperature;BME280_humidity;BME280_pressure;Samples;Min_cycle;Max_cycle;Signal;HPM_P1;HPM_P2
2023/09/04 00:00:16;;;;;;;3.75;2.28;;;38.20;76.60;;;;;;5016454;28;20067;-65
2023/09/04 00:02:43;;;;;;;5.68;2.70;;;38.20;78.30;;;;;;5015101;28;20025;-61
2023/09/04 00:05:09;;;;;;;5.90;3.03;;;38.20;78.30;;;;;;5021603;28;20021;-64
2023/09/04 00:07:36;;;;;;;9.88;3.35;;;38.20;78.90;;;;;;5012757;28;20032;-63
2023/09/04 00:10:03;;;;;;;8.98;3.35;;;38.10;80.30;;;;;;5011112;28;20067;-62
2023/09/04 00:12:30;;;;;;;9.85;3.35;;;38.10;81.00;;;;;;5013575;28;20026;-61
2023/09/04 00:14:56;;;;;;;5.78;3.03;;;38.00;81.70;;;;;;5015554;28;20041;-61
2023/09/04 00:17:23;;;;;;;7.75;3.03;;;37.90;80.50;;;;;;5019155;28;20013;-63
2023/09/04 00:19:49;;;;;;;7.97;3.13;;;37.80;80.30;;;;;;5018023;28;20048;-58
2023/09/04 00:22:15;;;;;;;5.30;2.85;;;37.70;79.30;;;;;;5022443;28;20037;-54
2023/09/04 00:24:42;;;;;;;11.00;4.50;;;37.60;79.60;;;;;;5014863;28;20010;-63
2023/09/04 00:27:08;;;;;;;7.38;4.30;;;37.60;79.00;;;;;;5016356;28;20466;-59
2023/09/04 00:29:35;;;;;;;6.53;2.50;;;37.70;79.40;;;;;;5013289;28;20022;-62
2023/09/04 00:32:02;;;;;;;4.47;2.30;;;37.70;74.40;;;;;;5013187;28;20014;-63
2023/09/04 00:34:29;;;;;;;6.05;2.67;;;37.70;74.30;;;;;;5014710;28;20018;-64
2023/09/04 00:36:55;;;;;;;6.40;3.22;;;37.70;79.50;;;;;;5017350;28;20377;-61
2023/09/04 00:39:21;;;;;;;5.90;3.40;;;37.60;80.50;;;;;;5017483;28;20009;-64
2023/09/04 00:41:48;;;;;;;6.20;3.22;;;37.60;81.90;;;;;;5015891;28;20418;-61
2023/09/04 00:44:14;;;;;;;14.02;3.80;;;37.50;82.30;;;;;;5012762;28;20465;-65
2023/09/04 00:46:43;;;;;;;7.20;3.58;;;37.50;81.90;;;;;;5035859;28;20397;-62
2023/09/04 00:49:12;;;;;;;11.45;4.53;;;37.50;82.40;;;;;;5021446;28;20025;-62
2023/09/04 00:51:39;;;;;;;6.80;2.85;;;37.40;83.60;;;;;;5022392;28;20044;-64
2023/09/04 00:54:08;;;;;;;12.32;3.55;;;37.30;83.20;;;;;;5023453;28;20481;-65
2023/09/04 00:56:35;;;;;;;8.52;3.22;;;37.30;83.60;;;;;;5020646;28;20697;-61
2023/09/04 00:59:01;;;;;;;6.63;2.92;;;37.20;83.50;;;;;;5018898;28;20431;-64
2023/09/04 01:01:29;;;;;;;5.72;3.03;;;37.10;83.70;;;;;;5023117;28;20072;-59
2023/09/04 01:03:55;;;;;;;6.07;2.78;;;37.10;84.30;;;;;;5016211;28;20048;-61
2023/09/04 01:06:22;;;;;;;12.07;3.00;;;37.00;84.80;;;;;;5016934;28;20109;-62
2023/09/04 01:08:49;;;;;;;10.02;3.40;;;37.00;83.70;;;;;;5013784;28;20021;-69
2023/09/04 01:11:40;;;;;;;6.72;2.88;;;36.90;83.90;;;;;;5017922;28;20029;-63
2023/09/04 01:14:16;;;;;;;12.23;3.25;;;36.80;81.10;;;;;;5019010;28;20095;-64
2023/09/04 01:16:44;;;;;;;8.32;3.17;;;36.80;82.50;;;;;;5017185;28;20025;-64
2023/09/04 01:19:13;;;;;;;42.53;3.80;;;36.70;81.40;;;;;;5012116;28;20068;-63
2023/09/04 01:21:40;;;;;;;25.15;3.53;;;36.50;69.80;;;;;;5021492;28;20022;-63
2023/09/04 01:24:09;;;;;;;18.50;2.92;;;36.30;64.80;;;;;;5015433;28;20037;-64
2023/09/04 01:27:13;;;;;;;16.55;2.80;;;36.10;63.70;;;;;;5018036;28;20077;-64
2023/09/04 01:29:50;;;;;;;21.05;3.00;;;35.90;64.00;;;;;;5020618;28;20025;-64
2023/09/04 01:32:44;;;;;;;21.13;3.83;;;35.90;64.60;;;;;;5019762;28;20041;-65
2023/09/04 01:35:12;;;;;;;16.38;2.95;;;35.80;64.40;;;;;;5013958;28;20026;-64
2023/09/04 01:37:42;;;;;;;23.45;3.38;;;35.70;63.60;;;;;;5012344;28;20045;-66
2023/09/04 01:40:09;;;;;;;19.25;3.22;;;35.50;64.40;;;;;;5017531;28;20382;-66
2023/09/04 01:42:36;;;;;;;17.33;3.17;;;35.50;65.00;;;;;;5014004;28;20076;-66
2023/09/04 01:45:03;;;;;;;17.05;3.90;;;35.40;64.60;;;;;;5014942;28;20022;-63
2023/09/04 01:47:30;;;;;;;24.08;3.78;;;35.20;65.90;;;;;;5014184;28;20013;-65
2023/09/04 01:49:57;;;;;;;33.45;3.70;;;35.10;65.60;;;;;;5020109;28;20025;-67
2023/09/04 01:52:24;;;;;;;25.25;3.33;;;35.00;66.40;;;;;;5016341;28;20088;-65
2023/09/04 01:54:50;;;;;;;16.33;3.80;;;34.90;65.70;;;;;;5018844;28;20028;-64
2023/09/04 01:57:17;;;;;;;38.75;3.75;;;34.60;66.80;;;;;;5019933;28;20382;-65
2023/09/04 01:59:43;;;;;;;19.58;4.03;;;34.50;67.00;;;;;;5019409;28;20104;-64
2023/09/04 02:02:09;;;;;;;21.40;3.70;;;34.40;67.10;;;;;;5035047;28;20025;-65
2023/09/04 02:04:36;;;;;;;34.45;4.22;;;34.30;67.60;;;;;;5018403;28;20014;-64
2023/09/04 02:07:04;;;;;;;23.48;4.25;;;34.20;68.20;;;;;;5019100;28;20026;-68
2023/09/04 02:09:32;;;;;;;24.50;3.80;;;34.10;69.10;;;;;;5035567;28;20018;-64
2023/09/04 02:11:58;;;;;;;33.80;4.25;;;34.00;68.00;;;;;;5016240;28;20101;-65
2023/09/04 02:14:25;;;;;;;21.55;3.90;;;33.80;68.60;;;;;;5016770;28;20024;-64
2023/09/04 02:16:52;;;;;;;17.77;3.60;;;33.80;69.70;;;;;;5016135;28;20501;-65
2023/09/04 02:19:18;;;;;;;21.92;4.00;;;33.70;69.60;;;;;;5018819;28;20466;-67
2023/09/04 02:21:45;;;;;;;20.58;4.15;;;33.60;69.80;;;;;;5017347;28;20402;-66
2023/09/04 02:24:11;;;;;;;41.25;4.43;;;33.50;69.90;;;;;;5016383;28;20513;-66
2023/09/04 02:26:37;;;;;;;37.03;4.75;;;33.50;70.00;;;;;;5022133;28;20055;-65
2023/09/04 02:29:04;;;;;;;22.88;3.95;;;33.40;70.20;;;;;;5020326;28;20053;-62
2023/09/04 02:31:30;;;;;;;35.03;5.05;;;33.30;70.10;;;;;;5031307;28;20104;-63
2023/09/04 02:33:57;;;;;;;43.78;4.88;;;33.30;70.10;;;;;;5020160;28;20022;-65
2023/09/04 02:36:23;;;;;;;34.05;4.63;;;33.20;70.20;;;;;;5017754;28;20025;-65
2023/09/04 02:38:50;;;;;;;33.88;4.45;;;33.10;70.60;;;;;;5021788;28;20021;-65
2023/09/04 02:41:16;;;;;;;47.20;4.68;;;33.10;69.90;;;;;;5023072;28;20025;-62
2023/09/04 02:43:42;;;;;;;34.38;5.03;;;33.00;70.10;;;;;;5022185;28;20021;-66
2023/09/04 02:46:09;;;;;;;25.58;4.35;;;33.00;70.40;;;;;;5014828;28;20044;-65
2023/09/04 02:48:35;;;;;;;36.70;4.32;;;32.90;70.90;;;;;;5013304;28;20076;-63
2023/09/04 02:51:02;;;;;;;23.58;4.03;;;32.90;71.20;;;;;;5016089;28;20029;-67
2023/09/04 02:53:28;;;;;;;32.53;4.78;;;32.80;71.70;;;;;;5016739;28;20485;-66
2023/09/04 02:55:55;;;;;;;39.05;5.20;;;32.70;71.90;;;;;;5019295;28;20470;-64
2023/09/04 02:58:22;;;;;;;27.17;4.18;;;32.50;73.30;;;;;;5015201;28;20158;-67
2023/09/04 03:00:49;;;;;;;27.00;4.32;;;32.50;72.50;;;;;;5017196;28;20064;-63
2023/09/04 03:03:19;;;;;;;25.52;4.07;;;32.40;72.90;;;;;;5015098;28;20018;-66
2023/09/04 03:05:46;;;;;;;19.65;4.07;;;32.30;73.40;;;;;;5021805;28;20025;-64
2023/09/04 03:08:13;;;;;;;31.85;4.80;;;32.20;73.80;;;;;;5022246;28;20022;-63
2023/09/04 03:10:39;;;;;;;34.20;4.40;;;32.10;74.00;;;;;;5032659;28;20614;-64
2023/09/04 03:13:06;;;;;;;29.05;4.40;;;32.00;75.30;;;;;;5021833;28;20100;-64
2023/09/04 03:15:34;;;;;;;37.45;5.03;;;31.90;74.80;;;;;;5020947;28;20030;-64
2023/09/04 03:18:00;;;;;;;34.13;5.00;;;31.80;75.80;;;;;;5020011;28;20030;-63
2023/09/04 03:20:26;;;;;;;71.10;6.38;;;31.70;76.30;;;;;;5019124;28;20106;-63
2023/09/04 03:22:53;;;;;;;61.92;7.07;;;31.50;76.60;;;;;;5020541;28;20565;-67
2023/09/04 03:25:19;;;;;;;102.28;8.85;;;31.50;77.10;;;;;;5022082;28;20029;-65
2023/09/04 03:27:46;;;;;;;83.88;8.45;;;31.40;77.60;;;;;;5015924;28;20014;-66
2023/09/04 03:30:12;;;;;;;87.28;9.18;;;31.30;77.90;;;;;;5020484;28;20425;-61
2023/09/04 03:32:39;;;;;;;87.40;8.98;;;31.20;78.00;;;;;;5021882;28;20045;-65
2023/09/04 03:35:06;;;;;;;82.82;8.10;;;31.20;78.50;;;;;;5019502;28;20054;-60
2023/09/04 03:37:36;;;;;;;82.55;7.65;;;31.10;78.70;;;;;;5013619;28;20421;-60
2023/09/04 03:40:26;;;;;;;72.97;8.57;;;31.00;79.30;;;;;;5013354;28;20021;-60
2023/09/04 03:42:53;;;;;;;107.25;8.57;;;30.90;79.50;;;;;;5012207;28;20029;-60
2023/09/04 03:45:20;;;;;;;115.07;9.98;;;30.80;80.10;;;;;;5017267;28;20022;-60
2023/09/04 03:47:48;;;;;;;96.22;8.93;;;30.70;80.20;;;;;;5016692;28;20490;-61
2023/09/04 03:50:15;;;;;;;105.03;10.05;;;30.60;80.10;;;;;;5016380;28;20121;-62
2023/09/04 03:52:42;;;;;;;113.93;11.02;;;30.50;80.90;;;;;;5012273;28;20014;-60
2023/09/04 03:55:10;;;;;;;132.65;11.43;;;30.40;80.60;;;;;;5011850;28;20413;-60
2023/09/04 03:57:37;;;;;;;135.43;10.82;;;30.20;81.00;;;;;;5015798;28;20033;-61
2023/09/04 04:00:17;;;;;;;136.77;11.70;;;30.10;81.10;;;;;;5015710;28;20021;-62
2023/09/04 04:02:46;;;;;;;152.00;12.50;;;30.00;81.30;;;;;;5019378;28;20509;-62
2023/09/04 04:05:14;;;;;;;167.63;14.02;;;29.80;81.30;;;;;;5020675;28;20560;-61
2023/09/04 04:07:41;;;;;;;154.40;13.82;;;29.60;81.30;;;;;;5015006;28;20018;-63
2023/09/04 04:10:08;;;;;;;193.05;14.98;;;29.60;81.20;;;;;;5014833;28;20044;-63
2023/09/04 04:12:35;;;;;;;155.13;13.43;;;29.40;81.20;;;;;;5021024;28;20111;-63
2023/09/04 04:15:05;;;;;;;118.20;12.27;;;29.40;81.00;;;;;;5021663;28;20053;-63
2023/09/04 04:17:36;;;;;;;109.63;10.57;;;29.20;80.90;;;;;;5013797;28;20059;-63
2023/09/04 04:20:16;;;;;;;111.68;9.90;;;29.20;80.50;;;;;;5014070;28;20042;-62
2023/09/04 04:22:42;;;;;;;93.90;9.70;;;29.00;80.50;;;;;;5015631;28;20060;-63
2023/09/04 04:25:10;;;;;;;98.30;10.50;;;29.00;80.10;;;;;;5016121;28;20047;-63
2023/09/04 04:27:38;;;;;;;94.88;10.00;;;29.00;80.30;;;;;;5009913;28;20026;-63
2023/09/04 04:30:05;;;;;;;102.63;10.32;;;28.90;80.00;;;;;;5013048;28;20056;-61
2023/09/04 04:32:32;;;;;;;95.70;9.75;;;28.80;79.90;;;;;;5014619;28;20544;-63
2023/09/04 04:34:58;;;;;;;139.95;11.93;;;28.80;79.50;;;;;;5010686;28;20412;-63
2023/09/04 04:37:25;;;;;;;168.02;13.50;;;28.80;78.70;;;;;;5029800;28;20047;-66
2023/09/04 04:39:52;;;;;;;160.07;13.00;;;28.80;79.10;;;;;;5009598;28;20048;-65
2023/09/04 04:42:19;;;;;;;170.35;13.82;;;28.80;79.20;;;;;;5010371;28;20110;-65
2023/09/04 04:44:46;;;;;;;139.05;12.07;;;28.70;79.30;;;;;;5013425;28;20041;-63
2023/09/04 04:47:12;;;;;;;129.73;11.55;;;28.60;79.10;;;;;;5018072;28;20046;-62
2023/09/04 04:49:38;;;;;;;98.82;10.45;;;28.50;79.00;;;;;;5010934;28;20088;-63
2023/09/04 04:52:05;;;;;;;125.38;11.70;;;28.50;79.50;;;;;;5013642;28;20045;-63
2023/09/04 04:54:31;;;;;;;141.15;11.90;;;28.40;79.10;;;;;;5011460;28;20037;-65
2023/09/04 04:56:58;;;;;;;148.68;11.60;;;28.30;78.20;;;;;;5012811;28;20085;-63
2023/09/04 04:59:25;;;;;;;132.52;12.18;;;28.20;77.80;;;;;;5027138;28;20386;-64
2023/09/04 05:01:51;;;;;;;132.18;11.68;;;28.20;78.00;;;;;;5014275;28;20049;-64
2023/09/04 05:04:18;;;;;;;104.20;11.15;;;28.10;77.30;;;;;;5012375;28;20059;-65
2023/09/04 05:06:46;;;;;;;119.40;10.93;;;28.30;77.20;;;;;;5011089;28;20051;-64
2023/09/04 05:09:12;;;;;;;93.38;10.13;;;28.40;75.80;;;;;;5014909;28;20048;-62
2023/09/04 05:11:39;;;;;;;72.05;8.15;;;28.50;75.20;;;;;;5016783;28;20053;-66
2023/09/04 05:14:05;;;;;;;92.45;9.13;;;28.60;74.50;;;;;;5011997;28;20134;-67
2023/09/04 05:16:31;;;;;;;84.93;8.05;;;28.70;74.50;;;;;;5019917;28;20541;-61
2023/09/04 05:18:58;;;;;;;85.38;8.80;;;28.90;73.20;;;;;;5016497;28;20030;-64
2023/09/04 05:21:24;;;;;;;71.85;8.20;;;29.00;73.50;;;;;;5013617;28;20007;-65
2023/09/04 05:23:52;;;;;;;77.28;8.68;;;29.20;73.60;;;;;;5013010;28;20045;-63
2023/09/04 05:26:18;;;;;;;71.75;9.45;;;29.10;73.40;;;;;;5014982;28;20021;-63
2023/09/04 05:28:45;;;;;;;65.07;6.88;;;29.10;74.20;;;;;;5016023;28;20040;-61
2023/09/04 05:31:11;;;;;;;61.78;8.30;;;29.20;73.70;;;;;;5034093;28;20025;-61
2023/09/04 05:33:37;;;;;;;65.95;7.88;;;29.00;73.90;;;;;;5015728;28;20043;-63
2023/09/04 05:36:05;;;;;;;41.55;6.70;;;28.90;73.80;;;;;;5009547;28;20033;-65
2023/09/04 05:38:32;;;;;;;47.53;6.65;;;28.80;74.70;;;;;;5025332;28;20072;-63
2023/09/04 05:40:58;;;;;;;52.55;6.82;;;28.70;74.30;;;;;;5011490;28;20142;-62
2023/09/04 05:43:25;;;;;;;44.38;7.00;;;28.70;74.50;;;;;;5009966;28;20022;-63
2023/09/04 05:45:53;;;;;;;69.47;7.85;;;28.90;74.80;;;;;;5014592;28;20112;-60
2023/09/04 05:48:19;;;;;;;67.15;7.30;;;28.80;74.60;;;;;;5014386;28;20606;-65
2023/09/04 05:50:46;;;;;;;68.32;8.48;;;28.80;74.00;;;;;;5011179;28;20044;-61
2023/09/04 05:53:12;;;;;;;62.78;7.07;;;28.70;73.10;;;;;;5012108;28;20070;-63
2023/09/04 05:55:42;;;;;;;38.00;5.78;;;28.60;72.30;;;;;;5018629;28;20163;-62
2023/09/04 05:58:11;;;;;;;9.55;3.85;;;28.50;71.90;;;;;;5012976;28;20057;-61
2023/09/04 06:00:38;;;;;;;16.45;4.22;;;28.40;70.70;;;;;;5020178;28;20044;-60
2023/09/04 06:03:04;;;;;;;10.88;3.40;;;28.40;71.20;;;;;;5018128;28;20038;-61
2023/09/04 06:05:31;;;;;;;17.65;4.22;;;28.40;69.50;;;;;;5012118;28;20090;-63
2023/09/04 06:07:57;;;;;;;12.77;3.83;;;28.40;68.20;;;;;;5010911;28;20516;-61
2023/09/04 06:10:24;;;;;;;18.65;3.45;;;28.40;68.30;;;;;;5012082;28;20060;-61
2023/09/04 06:12:52;;;;;;;16.55;3.67;;;28.40;67.20;;;;;;5010477;28;20325;-61
2023/09/04 06:15:19;;;;;;;22.90;4.30;;;28.40;66.10;;;;;;5021921;28;20059;-62
2023/09/04 06:17:45;;;;;;;14.70;3.13;;;28.40;65.50;;;;;;5020622;28;20044;-62
2023/09/04 06:20:12;;;;;;;22.52;3.80;;;28.30;64.90;;;;;;5015383;28;20408;-61
2023/09/04 06:22:39;;;;;;;16.67;4.30;;;28.40;64.70;;;;;;5018129;28;20068;-62
2023/09/04 06:25:06;;;;;;;30.45;4.28;;;28.40;63.20;;;;;;5015180;28;20057;-62
2023/09/04 06:27:33;;;;;;;49.50;4.95;;;28.30;63.70;;;;;;5039700;28;20435;-62
2023/09/04 06:29:59;;;;;;;52.97;5.30;;;28.20;62.10;;;;;;5022203;28;20049;-62
2023/09/04 06:32:26;;;;;;;42.65;5.10;;;28.00;61.90;;;;;;5014333;28;20044;-62
2023/09/04 06:34:52;;;;;;;37.83;4.43;;;28.00;61.20;;;;;;5013146;28;20048;-62
2023/09/04 06:37:18;;;;;;;32.38;5.15;;;28.00;62.00;;;;;;5014197;28;20462;-65
2023/09/04 06:39:45;;;;;;;43.30;4.40;;;28.00;61.50;;;;;;5013309;28;20045;-67
2023/09/04 06:42:11;;;;;;;30.58;3.88;;;28.00;61.10;;;;;;5017482;28;20037;-64
2023/09/04 06:44:37;;;;;;;42.15;4.50;;;28.00;61.30;;;;;;5019117;28;20052;-63
2023/09/04 06:47:04;;;;;;;43.13;4.85;;;27.90;61.20;;;;;;5018594;28;20423;-61
2023/09/04 06:49:31;;;;;;;25.73;4.57;;;27.90;61.10;;;;;;5018345;28;20501;-60
2023/09/04 06:51:57;;;;;;;36.72;4.68;;;27.90;61.20;;;;;;5018421;28;20065;-60
2023/09/04 06:54:24;;;;;;;33.53;4.68;;;27.90;60.60;;;;;;5017503;28;20051;-60
2023/09/04 06:56:50;;;;;;;32.17;4.18;;;27.70;60.80;;;;;;5013276;28;20071;-62
2023/09/04 06:59:17;;;;;;;37.92;4.85;;;27.80;61.50;;;;;;5011049;28;20496;-60
2023/09/04 07:01:43;;;;;;;32.85;4.50;;;27.70;61.40;;;;;;5017729;28;20048;-62
2023/09/04 07:04:10;;;;;;;42.67;4.97;;;27.80;61.40;;;;;;5013097;28;20041;-60
2023/09/04 07:06:36;;;;;;;32.90;4.90;;;27.70;63.60;;;;;;5012695;28;20049;-61
2023/09/04 07:09:03;;;;;;;46.60;4.68;;;27.60;64.10;;;;;;5016898;28;20413;-61
2023/09/04 07:11:29;;;;;;;25.58;4.35;;;27.50;63.70;;;;;;5021695;28;20060;-60
2023/09/04 07:13:56;;;;;;;30.05;4.80;;;27.50;64.50;;;;;;5016560;28;20050;-59
2023/09/04 07:16:22;;;;;;;23.85;4.70;;;27.40;65.10;;;;;;5012864;28;20096;-63
2023/09/04 07:18:48;;;;;;;28.10;3.90;;;27.40;66.00;;;;;;5015738;28;20077;-62
2023/09/04 07:21:15;;;;;;;25.88;4.40;;;27.40;66.40;;;;;;5013883;28;20674;-59
2023/09/04 07:23:41;;;;;;;25.05;4.20;;;27.30;66.20;;;;;;5013897;28;20093;-62
2023/09/04 07:26:08;;;;;;;18.70;3.80;;;27.20;66.20;;;;;;5014642;28;20358;-61
2023/09/04 07:28:34;;;;;;;27.27;4.45;;;27.20;67.10;;;;;;5012655;28;20445;-61
2023/09/04 07:31:20;;;;;;;28.95;4.60;;;27.10;66.70;;;;;;5012546;28;20100;-61
2023/09/04 07:33:48;;;;;;;28.40;4.93;;;27.10;66.40;;;;;;5012065;28;20055;-61
2023/09/04 07:36:15;;;;;;;27.70;4.88;;;27.00;66.40;;;;;;5013841;28;20089;-61
2023/09/04 07:38:43;;;;;;;27.65;4.20;;;26.90;66.20;;;;;;5014554;28;20103;-61
2023/09/04 07:41:10;;;;;;;37.53;5.22;;;26.80;66.70;;;;;;5014440;28;20087;-61
2023/09/04 07:43:36;;;;;;;42.13;4.40;;;26.70;66.40;;;;;;5011988;28;20039;-61
2023/09/04 07:46:04;;;;;;;41.95;4.70;;;26.70;65.90;;;;;;5018495;28;20524;-60
2023/09/04 07:48:31;;;;;;;41.42;5.32;;;26.70;66.20;;;;;;5025575;28;20060;-60
2023/09/04 07:50:58;;;;;;;36.38;5.32;;;26.60;67.10;;;;;;5024446;28;20657;-63
2023/09/04 07:53:24;;;;;;;24.52;4.32;;;26.60;67.60;;;;;;5028732;28;20111;-61
2023/09/04 07:55:51;;;;;;;37.58;4.50;;;26.60;69.00;;;;;;5028032;28;20056;-60
2023/09/04 07:58:18;;;;;;;28.13;5.10;;;26.50;69.30;;;;;;5027168;28;20061;-60
2023/09/04 08:00:50;;;;;;;27.45;4.82;;;26.40;69.40;;;;;;5027399;28;20531;-61
2023/09/04 08:03:17;;;;;;;31.55;5.15;;;26.40;70.30;;;;;;5028107;28;20505;-62
2023/09/04 08:05:43;;;;;;;28.88;4.80;;;26.40;71.20;;;;;;5027210;28;20473;-60
2023/09/04 08:08:11;;;;;;;34.50;5.18;;;26.40;71.20;;;;;;5026416;28;20050;-60
2023/09/04 08:10:40;;;;;;;35.08;5.13;;;26.30;71.30;;;;;;5013883;28;20047;-60
2023/09/04 08:13:12;;;;;;;37.63;5.68;;;26.30;71.70;;;;;;5026095;28;20447;-62
2023/09/04 08:15:38;;;;;;;32.03;5.20;;;26.20;71.40;;;;;;5025941;28;20087;-62
2023/09/04 08:18:06;;;;;;;33.60;5.22;;;26.20;71.50;;;;;;5027352;28;20103;-60
2023/09/04 08:20:34;;;;;;;30.55;5.05;;;26.20;70.50;;;;;;5023952;28;20065;-63
2023/09/04 08:23:00;;;;;;;36.47;5.60;;;26.20;70.70;;;;;;5026376;28;20082;-63
2023/09/04 08:25:27;;;;;;;38.03;5.72;;;26.20;69.60;;;;;;5024899;28;20069;-61
2023/09/04 08:27:53;;;;;;;43.63;6.10;;;26.20;69.50;;;;;;5017858;28;20061;-61
2023/09/04 08:30:20;;;;;;;37.20;5.63;;;26.20;69.50;;;;;;5022306;28;20077;-62
2023/09/04 08:32:46;;;;;;;47.28;5.65;;;26.20;69.50;;;;;;5025424;28;20071;-62
2023/09/04 08:35:13;;;;;;;46.30;6.43;;;26.20;69.80;;;;;;5018641;28;20054;-61
2023/09/04 08:37:39;;;;;;;48.10;5.88;;;26.20;70.00;;;;;;5025533;28;20528;-63
2023/09/04 08:40:06;;;;;;;53.03;6.88;;;26.20;71.50;;;;;;5022965;28;20060;-60
2023/09/04 08:42:33;;;;;;;50.80;6.20;;;26.20;71.40;;;;;;5023516;28;20439;-61
2023/09/04 08:45:00;;;;;;;56.60;6.68;;;26.20;72.00;;;;;;5023180;28;20112;-63
2023/09/04 08:47:27;;;;;;;45.28;6.40;;;26.20;71.50;;;;;;5026491;28;20096;-61
2023/09/04 08:49:57;;;;;;;67.65;7.15;;;26.10;72.30;;;;;;5025210;28;20064;-62
2023/09/04 08:52:23;;;;;;;56.47;6.97;;;26.00;72.30;;;;;;5027995;28;20076;-61
2023/09/04 08:54:51;;;;;;;50.28;6.10;;;25.90;72.30;;;;;;5028638;28;20061;-62
2023/09/04 08:57:18;;;;;;;51.35;6.38;;;25.80;72.80;;;;;;5028235;28;20085;-61
2023/09/04 08:59:45;;;;;;;40.60;6.18;;;25.80;72.90;;;;;;5024961;28;20050;-62
2023/09/04 09:02:16;;;;;;;30.10;5.63;;;25.80;73.10;;;;;;5023409;28;20081;-61
2023/09/04 09:04:42;;;;;;;40.63;5.85;;;25.80;74.00;;;;;;5024401;28;20485;-62
2023/09/04 09:07:11;;;;;;;28.17;5.05;;;25.80;73.90;;;;;;5023719;28;20641;-59
2023/09/04 09:09:39;;;;;;;16.35;4.82;;;25.70;74.00;;;;;;5026650;28;20412;-63
2023/09/04 09:12:06;;;;;;;30.05;5.35;;;25.60;75.00;;;;;;5026515;28;20046;-62
2023/09/04 09:14:33;;;;;;;22.98;5.65;;;25.60;75.60;;;;;;5026911;28;20382;-60
2023/09/04 09:17:06;;;;;;;24.50;5.65;;;25.60;76.60;;;;;;5027169;28;20083;-60
2023/09/04 09:19:36;;;;;;;27.17;5.50;;;25.50;76.70;;;;;;5024923;28;20530;-61
2023/09/04 09:22:10;;;;;;;38.25;6.03;;;25.50;77.10;;;;;;5027537;28;20053;-60
2023/09/04 09:25:01;;;;;;;39.95;6.38;;;25.50;77.30;;;;;;5037237;28;20070;-60
2023/09/04 09:27:29;;;;;;;50.50;7.88;;;25.40;78.10;;;;;;5025218;28;20059;-61
2023/09/04 09:29:57;;;;;;;60.33;8.52;;;25.30;78.00;;;;;;5023555;28;20593;-62
2023/09/04 09:32:28;;;;;;;77.28;8.43;;;25.20;78.20;;;;;;5021252;28;20063;-62
2023/09/04 09:34:57;;;;;;;79.68;8.52;;;25.20;78.60;;;;;;5026466;28;20088;-63
2023/09/04 09:37:25;;;;;;;109.20;10.18;;;25.10;79.00;;;;;;5026932;28;20050;-62
2023/09/04 09:39:52;;;;;;;106.60;10.35;;;25.10;79.40;;;;;;5018474;28;20069;-62
2023/09/04 09:42:23;;;;;;;101.55;10.65;;;25.10;80.10;;;;;;5017972;28;20092;-63
2023/09/04 09:44:52;;;;;;;96.55;11.00;;;25.10;81.10;;;;;;5026537;28;20755;-61
2023/09/04 09:47:18;;;;;;;99.93;10.55;;;25.10;81.00;;;;;;5024185;28;20065;-62
2023/09/04 09:49:46;;;;;;;127.43;12.55;;;25.10;81.90;;;;;;5018875;28;20047;-61
2023/09/04 09:52:13;;;;;;;133.73;11.25;;;25.10;82.10;;;;;;5026760;28;20050;-61
2023/09/04 09:54:46;;;;;;;154.48;13.77;;;25.10;82.30;;;;;;5024249;28;20456;-61
2023/09/04 09:57:13;;;;;;;139.77;13.38;;;25.00;83.00;;;;;;5024900;28;20054;-60
2023/09/04 09:59:43;;;;;;;115.75;11.73;;;24.90;83.20;;;;;;5020213;28;20052;-62
2023/09/04 10:02:15;;;;;;;103.97;9.98;;;24.90;83.50;;;;;;5020120;28;20060;-63
2023/09/04 10:04:43;;;;;;;111.90;10.32;;;24.80;83.70;;;;;;5021980;28;20072;-64
2023/09/04 10:07:15;;;;;;;71.22;8.88;;;24.70;83.50;;;;;;5020656;28;20120;-61
2023/09/04 10:09:44;;;;;;;57.97;7.90;;;24.60;82.60;;;;;;5025870;28;20106;-62
2023/09/04 10:12:21;;;;;;;50.75;8.20;;;24.60;81.70;;;;;;5009330;28;20137;-62
2023/09/04 10:14:47;;;;;;;;;;;24.60;81.90;;;;;;5024322;28;20055;-65
2023/09/04 10:17:21;;;;;;;23.17;6.07;;;24.70;83.10;;;;;;5020574;28;20014;-64
2023/09/04 10:19:49;;;;;;;29.30;6.15;;;24.60;83.70;;;;;;5019928;28;20056;-60
2023/09/04 10:22:27;;;;;;;30.55;7.03;;;24.50;83.90;;;;;;5022115;28;20412;-61
2023/09/04 10:25:06;;;;;;;22.17;5.72;;;24.50;83.20;;;;;;5021087;28;20068;-62
2023/09/04 10:27:40;;;;;;;19.88;5.70;;;24.50;82.60;;;;;;5017874;28;20090;-61
2023/09/04 10:30:09;;;;;;;30.52;6.30;;;24.60;81.80;;;;;;5018111;28;20084;-61
2023/09/04 10:32:37;;;;;;;29.73;5.47;;;24.50;80.50;;;;;;5019369;28;20515;-59
2023/09/04 10:35:05;;;;;;;17.75;5.20;;;24.60;79.40;;;;;;5026041;28;20062;-60
2023/09/04 10:37:32;;;;;;;27.50;5.35;;;24.70;79.00;;;;;;5025772;28;20055;-60
2023/09/04 10:39:59;;;;;;;22.65;5.00;;;24.70;79.20;;;;;;5024986;28;20053;-60
2023/09/04 10:42:28;;;;;;;21.15;5.30;;;24.70;78.80;;;;;;5020768;28;20065;-62
2023/09/04 10:44:56;;;;;;;19.95;4.88;;;24.70;78.50;;;;;;5020013;28;20481;-61
2023/09/04 10:47:23;;;;;;;16.92;5.13;;;24.70;78.80;;;;;;5023321;28;20065;-60
2023/09/04 10:49:49;;;;;;;20.52;4.95;;;24.70;78.60;;;;;;5024239;28;20048;-62
2023/09/04 10:52:16;;;;;;;19.33;4.97;;;24.70;78.90;;;;;;5022990;28;20053;-62
2023/09/04 10:54:43;;;;;;;20.95;6.90;;;24.70;78.40;;;;;;5023992;28;20056;-62
2023/09/04 10:57:15;;;;;;;16.58;5.95;;;24.70;79.00;;;;;;5021989;28;20055;-61
2023/09/04 10:59:54;;;;;;;16.88;5.65;;;24.70;78.60;;;;;;5016370;28;20560;-62
2023/09/04 11:02:33;;;;;;;21.38;5.28;;;24.70;78.40;;;;;;5021409;28;20513;-61
2023/09/04 11:05:01;;;;;;;22.98;5.63;;;24.70;79.40;;;;;;5041669;28;20053;-61
2023/09/04 11:07:32;;;;;;;18.05;5.05;;;24.60;79.70;;;;;;5025556;28;20067;-62
2023/09/04 11:10:02;;;;;;;16.60;5.30;;;24.70;79.40;;;;;;5028990;28;20077;-62
2023/09/04 11:12:33;;;;;;;13.88;4.68;;;24.70;80.30;;;;;;5027678;28;20047;-63
2023/09/04 11:15:00;;;;;;;14.65;5.03;;;24.60;79.90;;;;;;5028043;28;20495;-61
2023/09/04 11:17:31;;;;;;;20.02;4.95;;;24.50;80.80;;;;;;5023499;28;20088;-61
2023/09/04 11:20:01;;;;;;;20.40;5.65;;;24.40;81.10;;;;;;5024784;28;20047;-62
2023/09/04 11:22:27;;;;;;;15.65;6.25;;;24.40;80.90;;;;;;5027116;28;20133;-63
2023/09/04 11:24:54;;;;;;;21.25;5.50;;;24.50;80.40;;;;;;5021717;28;20051;-61
2023/09/04 11:27:22;;;;;;;23.73;5.55;;;24.40;80.40;;;;;;5024256;28;20067;-61
2023/09/04 11:29:49;;;;;;;17.88;5.00;;;24.50;80.90;;;;;;5023029;28;20047;-61
2023/09/04 11:32:17;;;;;;;14.10;4.82;;;24.50;80.00;;;;;;5028042;28;20054;-62
2023/09/04 11:34:47;;;;;;;15.30;5.32;;;24.50;80.30;;;;;;5023962;28;20045;-61
2023/09/04 11:37:14;;;;;;;23.42;5.00;;;24.50;79.90;;;;;;5027162;28;20123;-60
2023/09/04 11:40:00;;;;;;;18.38;5.00;;;24.50;80.30;;;;;;5023228;28;20085;-59
2023/09/04 11:42:27;;;;;;;22.17;5.15;;;24.50;80.30;;;;;;5024239;28;20103;-61
2023/09/04 11:44:55;;;;;;;16.70;4.90;;;24.40;80.20;;;;;;5027422;28;20449;-62
2023/09/04 11:47:23;;;;;;;15.20;4.10;;;24.40;79.00;;;;;;5027936;28;21001;-59
2023/09/04 11:49:50;;;;;;;12.85;4.32;;;24.40;78.70;;;;;;5027489;28;20422;-64
2023/09/04 11:52:17;;;;;;;14.27;4.53;;;24.50;77.60;;;;;;5027527;28;20095;-62
2023/09/04 11:54:44;;;;;;;11.75;4.47;;;24.40;77.90;;;;;;5018694;28;20054;-59
2023/09/04 11:57:11;;;;;;;10.55;4.22;;;24.50;77.40;;;;;;5026915;28;20145;-61
2023/09/04 11:59:40;;;;;;;12.98;4.15;;;24.40;77.90;;;;;;5026522;28;20055;-60
2023/09/04 12:02:07;;;;;;;20.20;5.10;;;24.40;77.70;;;;;;5028114;28;20059;-61
2023/09/04 12:04:34;;;;;;;12.90;4.68;;;24.50;78.40;;;;;;5026146;28;20124;-63
2023/09/04 12:07:07;;;;;;;9.98;4.78;;;24.50;78.50;;;;;;5023340;28;20062;-61
2023/09/04 12:09:37;;;;;;;13.50;4.40;;;24.50;78.50;;;;;;5024875;28;20126;-61
2023/09/04 12:12:04;;;;;;;11.25;4.28;;;24.40;78.50;;;;;;5027199;28;20107;-60
2023/09/04 12:14:31;;;;;;;16.33;4.93;;;24.40;79.30;;;;;;5019880;28;20520;-63
2023/09/04 12:16:59;;;;;;;10.05;4.30;;;24.40;78.90;;;;;;5025312;28;20049;-60
2023/09/04 12:19:26;;;;;;;10.60;4.65;;;24.40;78.30;;;;;;5027503;28;20050;-60
2023/09/04 12:21:53;;;;;;;8.50;4.20;;;24.40;77.80;;;;;;5027126;28;20054;-62
2023/09/04 12:24:21;;;;;;;12.57;4.15;;;24.40;77.20;;;;;;5026905;28;20085;-61
2023/09/04 12:26:49;;;;;;;8.65;4.00;;;24.50;75.70;;;;;;5021817;28;20068;-62
2023/09/04 12:29:19;;;;;;;10.70;4.20;;;24.50;74.80;;;;;;5026953;28;20528;-62
2023/09/04 12:31:48;;;;;;;9.52;3.40;;;24.50;75.10;;;;;;5022925;28;20047;-61
2023/09/04 12:34:15;;;;;;;15.95;4.20;;;24.50;75.10;;;;;;5017256;28;20058;-63
2023/09/04 12:36:41;;;;;;;13.20;3.90;;;24.50;74.90;;;;;;5022962;28;20061;-59
2023/09/04 12:39:08;;;;;;;10.32;4.05;;;24.50;74.10;;;;;;5027056;28;20055;-62